sensor_id;sensor_type;location;lat;lon;timestamp;pressure;altitude;pressure_sealevel;temperature;humidity
72921;BME280;61064;51.654;5.476;2022-09-21T00:00:30;102683.75;;;12.39;75.87
72921;BME280;61064;51.654;5.476;2022-09-21T00:02:56;102680.97;;;12.35;75.89
72921;BME280;61064;51.654;5.476;2022-09-21T00:05:22;102682.66;;;12.31;76.12
72921;BME280;61064;51.654;5.476;2022-09-21T00:07:49;102673.50;;;12.23;76.33
72921;BME280;61064;51.654;5.476;2022-09-21T00:10:15;102672.59;;;12.23;76.31
72921;BME280;61064;51.654;5.476;2022-09-21T00:12:41;102682.38;;;12.22;76.38
72921;BME280;61064;51.654;5.476;2022-09-21T00:15:08;102677.88;;;12.20;76.66
72921;BME280;61064;51.654;5.476;2022-09-21T00:17:34;102679.69;;;12.22;76.50
72921;BME280;61064;51.654;5.476;2022-09-21T00:20:01;102680.38;;;12.15;76.58
72921;BME280;61064;51.654;5.476;2022-09-21T00:22:29;102671.34;;;12.10;76.58
72921;BME280;61064;51.654;5.476;2022-09-21T00:24:54;102681.16;;;12.11;76.52
72921;BME280;61064;51.654;5.476;2022-09-21T00:27:20;102675.63;;;12.03;76.70
72921;BME280;61064;51.654;5.476;2022-09-21T00:29:45;102671.97;;;12.01;76.59
72921;BME280;61064;51.654;5.476;2022-09-21T00:32:11;102675.38;;;11.96;76.67
72921;BME280;61064;51.654;5.476;2022-09-21T00:34:36;102667.13;;;11.88;76.78
72921;BME280;61064;51.654;5.476;2022-09-21T00:37:02;102677.84;;;11.90;76.75
72921;BME280;61064;51.654;5.476;2022-09-21T00:39:27;102676.75;;;11.83;76.61
72921;BME280;61064;51.654;5.476;2022-09-21T00:41:52;102674.81;;;11.78;76.73
72921;BME280;61064;51.654;5.476;2022-09-21T00:44:32;102680.13;;;11.78;77.02
72921;BME280;61064;51.654;5.476;2022-09-21T00:47:11;102672.75;;;11.71;77.03
72921;BME280;61064;51.654;5.476;2022-09-21T00:49:37;102682.56;;;11.72;77.08
72921;BME280;61064;51.654;5.476;2022-09-21T00:52:05;102669.09;;;11.67;77.02
72921;BME280;61064;51.654;5.476;2022-09-21T00:54:40;102667.03;;;11.57;76.94
72921;BME280;61064;51.654;5.476;2022-09-21T00:57:08;102668.84;;;11.59;77.02
72921;BME280;61064;51.654;5.476;2022-09-21T00:59:36;102679.50;;;11.58;77.03
72921;BME280;61064;51.654;5.476;2022-09-21T01:02:07;102670.47;;;11.54;77.03
72921;BME280;61064;51.654;5.476;2022-09-21T01:04:33;102675.72;;;11.51;77.20
72921;BME280;61064;51.654;5.476;2022-09-21T01:07:01;102670.28;;;11.48;77.29
72921;BME280;61064;51.654;5.476;2022-09-21T01:09:30;102663.06;;;11.44;77.00
72921;BME280;61064;51.654;5.476;2022-09-21T01:17:37;102678.19;;;11.45;76.98
72921;BME280;61064;51.654;5.476;2022-09-21T01:31:24;102676.41;;;11.17;77.53
72921;BME280;61064;51.654;5.476;2022-09-21T01:33:57;102684.31;;;11.16;77.38
72921;BME280;61064;51.654;5.476;2022-09-21T01:36:27;102688.09;;;11.22;77.54
72921;BME280;61064;51.654;5.476;2022-09-21T01:39:03;102683.63;;;11.21;77.60
72921;BME280;61064;51.654;5.476;2022-09-21T01:41:31;102682.50;;;11.15;77.62
72921;BME280;61064;51.654;5.476;2022-09-21T01:44:02;102687.91;;;11.16;77.50
72921;BME280;61064;51.654;5.476;2022-09-21T01:46:33;102692.44;;;11.19;77.51
72921;BME280;61064;51.654;5.476;2022-09-21T01:49:12;102685.16;;;11.13;77.78
72921;BME280;61064;51.654;5.476;2022-09-21T01:51:43;102685.16;;;11.15;77.55
72921;BME280;61064;51.654;5.476;2022-09-21T01:54:18;102673.38;;;11.07;77.77
72921;BME280;61064;51.654;5.476;2022-09-21T01:57:01;102669.72;;;11.03;77.91
72921;BME280;61064;51.654;5.476;2022-09-21T01:59:45;102688.59;;;11.11;77.87
72921;BME280;61064;51.654;5.476;2022-09-21T02:02:17;102674.16;;;11.04;77.85
72921;BME280;61064;51.654;5.476;2022-09-21T02:04:43;102690.31;;;11.09;77.89
72921;BME280;61064;51.654;5.476;2022-09-21T02:07:10;102691.97;;;11.05;77.87
72921;BME280;61064;51.654;5.476;2022-09-21T02:09:36;102685.63;;;11.02;77.69
72921;BME280;61064;51.654;5.476;2022-09-21T02:12:02;102685.69;;;11.03;77.71
72921;BME280;61064;51.654;5.476;2022-09-21T02:14:28;102689.09;;;10.99;77.97
72921;BME280;61064;51.654;5.476;2022-09-21T02:19:35;102679.81;;;10.88;77.95
72921;BME280;61064;51.654;5.476;2022-09-21T02:24:41;102679.72;;;10.85;78.08
72921;BME280;61064;51.654;5.476;2022-09-21T02:30:05;102686.81;;;10.84;77.92
72921;BME280;61064;51.654;5.476;2022-09-21T02:32:45;102689.25;;;10.78;78.06
72921;BME280;61064;51.654;5.476;2022-09-21T02:37:56;102687.13;;;10.68;78.22
72921;BME280;61064;51.654;5.476;2022-09-21T02:40:37;102681.69;;;10.65;78.06
72921;BME280;61064;51.654;5.476;2022-09-21T02:43:18;102692.09;;;10.59;78.04
72921;BME280;61064;51.654;5.476;2022-09-21T02:45:54;102690.31;;;10.58;77.95
72921;BME280;61064;51.654;5.476;2022-09-21T02:48:32;102692.00;;;10.56;78.15
72921;BME280;61064;51.654;5.476;2022-09-21T02:51:04;102684.78;;;10.52;78.18
72921;BME280;61064;51.654;5.476;2022-09-21T02:53:33;102680.97;;;10.46;77.96
72921;BME280;61064;51.654;5.476;2022-09-21T02:56:03;102688.91;;;10.44;77.84
72921;BME280;61064;51.654;5.476;2022-09-21T02:58:34;102679.00;;;10.40;78.16
72921;BME280;61064;51.654;5.476;2022-09-21T03:01:02;102689.53;;;10.37;78.04
72921;BME280;61064;51.654;5.476;2022-09-21T03:03:33;102691.25;;;10.35;78.00
72921;BME280;61064;51.654;5.476;2022-09-21T03:05:59;102686.59;;;10.29;78.02
72921;BME280;61064;51.654;5.476;2022-09-21T03:08:27;102681.88;;;10.22;78.28
72921;BME280;61064;51.654;5.476;2022-09-21T03:10:54;102683.56;;;10.20;78.01
72921;BME280;61064;51.654;5.476;2022-09-21T03:13:20;102677.13;;;10.14;78.00
72921;BME280;61064;51.654;5.476;2022-09-21T03:15:45;102688.53;;;10.11;78.12
72921;BME280;61064;51.654;5.476;2022-09-21T03:18:12;102686.47;;;10.04;78.07
72921;BME280;61064;51.654;5.476;2022-09-21T03:20:41;102688.38;;;10.07;78.07
72921;BME280;61064;51.654;5.476;2022-09-21T03:23:10;102698.94;;;10.05;78.18
72921;BME280;61064;51.654;5.476;2022-09-21T03:25:35;102688.88;;;9.96;77.97
72921;BME280;61064;51.654;5.476;2022-09-21T03:28:01;102696.84;;;9.96;78.38
72921;BME280;61064;51.654;5.476;2022-09-21T03:30:26;102702.19;;;9.98;78.18
72921;BME280;61064;51.654;5.476;2022-09-21T03:32:54;102699.44;;;9.95;78.06
72921;BME280;61064;51.654;5.476;2022-09-21T03:35:21;102678.41;;;9.79;78.24
72921;BME280;61064;51.654;5.476;2022-09-21T03:37:48;102696.59;;;9.90;78.04
72921;BME280;61064;51.654;5.476;2022-09-21T03:40:15;102703.50;;;9.85;78.39
72921;BME280;61064;51.654;5.476;2022-09-21T03:42:41;102697.81;;;9.76;78.28
72921;BME280;61064;51.654;5.476;2022-09-21T03:45:07;102706.75;;;9.78;78.19
72921;BME280;61064;51.654;5.476;2022-09-21T03:47:33;102706.41;;;9.69;78.44
72921;BME280;61064;51.654;5.476;2022-09-21T03:50:00;102695.53;;;9.63;78.32
72921;BME280;61064;51.654;5.476;2022-09-21T03:52:25;102689.91;;;9.55;78.24
72921;BME280;61064;51.654;5.476;2022-09-21T03:54:51;102713.41;;;9.67;78.39
72921;BME280;61064;51.654;5.476;2022-09-21T03:57:16;102702.53;;;9.61;78.15
72921;BME280;61064;51.654;5.476;2022-09-21T03:59:42;102704.19;;;9.59;78.37
72921;BME280;61064;51.654;5.476;2022-09-21T04:02:07;102686.91;;;9.48;78.41
72921;BME280;61064;51.654;5.476;2022-09-21T04:04:33;102696.84;;;9.52;78.24
72921;BME280;61064;51.654;5.476;2022-09-21T04:06:59;102704.09;;;9.56;78.26
72921;BME280;61064;51.654;5.476;2022-09-21T04:09:24;102698.41;;;9.47;78.24
72921;BME280;61064;51.654;5.476;2022-09-21T04:11:50;102710.97;;;9.51;78.24
72921;BME280;61064;51.654;5.476;2022-09-21T04:14:16;102690.88;;;9.37;78.35
72921;BME280;61064;51.654;5.476;2022-09-21T04:16:42;102642.94;;;9.11;78.20
72921;BME280;61064;51.654;5.476;2022-09-21T04:19:11;102661.06;;;9.22;78.27
72921;BME280;61064;51.654;5.476;2022-09-21T04:21:36;102686.13;;;9.28;78.16
72921;BME280;61064;51.654;5.476;2022-09-21T04:24:03;102657.06;;;9.10;78.43
72921;BME280;61064;51.654;5.476;2022-09-21T04:26:31;102694.94;;;9.27;78.43
72921;BME280;61064;51.654;5.476;2022-09-21T04:28:58;102708.41;;;9.32;78.40
72921;BME280;61064;51.654;5.476;2022-09-21T04:31:24;102705.63;;;9.29;78.33
72921;BME280;61064;51.654;5.476;2022-09-21T04:33:53;102695.66;;;9.23;78.24
72921;BME280;61064;51.654;5.476;2022-09-21T04:36:20;102706.09;;;9.18;78.23
72921;BME280;61064;51.654;5.476;2022-09-21T04:38:47;102704.28;;;9.17;78.71
72921;BME280;61064;51.654;5.476;2022-09-21T04:41:13;102701.53;;;9.16;78.19
72921;BME280;61064;51.654;5.476;2022-09-21T04:43:44;102708.69;;;9.17;78.48
72921;BME280;61064;51.654;5.476;2022-09-21T04:46:12;102707.69;;;9.15;78.44
72921;BME280;61064;51.654;5.476;2022-09-21T04:48:38;102712.06;;;9.13;78.51
72921;BME280;61064;51.654;5.476;2022-09-21T04:51:05;102711.06;;;9.11;78.10
72921;BME280;61064;51.654;5.476;2022-09-21T04:53:32;102717.16;;;9.08;78.23
72921;BME280;61064;51.654;5.476;2022-09-21T04:55:58;102711.59;;;9.02;78.05
72921;BME280;61064;51.654;5.476;2022-09-21T04:58:23;102702.31;;;8.93;78.38
72921;BME280;61064;51.654;5.476;2022-09-21T05:00:51;102710.94;;;8.87;78.21
72921;BME280;61064;51.654;5.476;2022-09-21T05:03:20;102727.13;;;8.93;78.51
72921;BME280;61064;51.654;5.476;2022-09-21T05:05:48;102726.09;;;8.90;78.46
72921;BME280;61064;51.654;5.476;2022-09-21T05:08:15;102700.69;;;8.75;78.47
72921;BME280;61064;51.654;5.476;2022-09-21T05:10:41;102722.19;;;8.82;78.43
72921;BME280;61064;51.654;5.476;2022-09-21T05:13:07;102734.63;;;8.83;78.34
72921;BME280;61064;51.654;5.476;2022-09-21T05:15:32;102731.78;;;8.78;78.74
72921;BME280;61064;51.654;5.476;2022-09-21T05:17:58;102736.16;;;8.77;78.30
72921;BME280;61064;51.654;5.476;2022-09-21T05:20:23;102729.84;;;8.74;78.43
72921;BME280;61064;51.654;5.476;2022-09-21T05:22:48;102733.44;;;8.76;78.61
72921;BME280;61064;51.654;5.476;2022-09-21T05:25:14;102724.38;;;8.71;78.45
72921;BME280;61064;51.654;5.476;2022-09-21T05:27:39;102718.78;;;8.65;78.36
72921;BME280;61064;51.654;5.476;2022-09-21T05:30:05;102734.03;;;8.69;78.61
72921;BME280;61064;51.654;5.476;2022-09-21T05:35:53;102740.19;;;8.68;78.70
72921;BME280;61064;51.654;5.476;2022-09-21T05:38:23;102736.19;;;8.58;78.58
72921;BME280;61064;51.654;5.476;2022-09-21T05:40:48;102742.41;;;8.59;78.72
72921;BME280;61064;51.654;5.476;2022-09-21T05:43:18;102739.63;;;8.56;78.73
72921;BME280;61064;51.654;5.476;2022-09-21T05:45:46;102747.44;;;8.53;78.54
72921;BME280;61064;51.654;5.476;2022-09-21T05:48:22;102745.47;;;8.49;78.82
72921;BME280;61064;51.654;5.476;2022-09-21T05:53:49;102753.53;;;8.50;78.92
72921;BME280;61064;51.654;5.476;2022-09-21T05:56:47;102753.44;;;8.49;78.91
72921;BME280;61064;51.654;5.476;2022-09-21T06:05:06;102754.06;;;8.43;79.11
72921;BME280;61064;51.654;5.476;2022-09-21T06:07:34;102753.38;;;8.47;79.15
72921;BME280;61064;51.654;5.476;2022-09-21T06:09:59;102749.84;;;8.47;79.20
72921;BME280;61064;51.654;5.476;2022-09-21T06:12:25;102761.47;;;8.50;79.38
72921;BME280;61064;51.654;5.476;2022-09-21T06:14:50;102751.63;;;8.48;79.01
72921;BME280;61064;51.654;5.476;2022-09-21T06:17:15;102772.44;;;8.58;79.47
72921;BME280;61064;51.654;5.476;2022-09-21T06:19:41;102757.16;;;8.52;79.13
72921;BME280;61064;51.654;5.476;2022-09-21T06:22:06;102757.00;;;8.49;79.38
72921;BME280;61064;51.654;5.476;2022-09-21T06:24:31;102774.47;;;8.63;79.41
72921;BME280;61064;51.654;5.476;2022-09-21T06:26:57;102718.28;;;8.33;79.34
72921;BME280;61064;51.654;5.476;2022-09-21T06:29:22;102762.16;;;8.65;79.49
72921;BME280;61064;51.654;5.476;2022-09-21T06:31:51;102755.25;;;8.69;79.83
72921;BME280;61064;51.654;5.476;2022-09-21T06:34:16;102747.50;;;8.73;79.75
72921;BME280;61064;51.654;5.476;2022-09-21T06:36:42;102747.13;;;8.85;79.74
72921;BME280;61064;51.654;5.476;2022-09-21T06:39:08;102738.25;;;8.85;79.55
72921;BME280;61064;51.654;5.476;2022-09-21T06:41:33;102754.78;;;8.98;79.97
72921;BME280;61064;51.654;5.476;2022-09-21T06:43:59;102762.25;;;9.07;79.82
72921;BME280;61064;51.654;5.476;2022-09-21T06:46:24;102767.19;;;9.18;80.21
72921;BME280;61064;51.654;5.476;2022-09-21T06:48:49;102771.38;;;9.34;80.13
72921;BME280;61064;51.654;5.476;2022-09-21T06:51:15;102765.69;;;9.46;80.16
72921;BME280;61064;51.654;5.476;2022-09-21T06:53:40;102764.22;;;9.54;80.25
72921;BME280;61064;51.654;5.476;2022-09-21T06:56:08;102750.34;;;9.61;80.40
72921;BME280;61064;51.654;5.476;2022-09-21T06:58:34;102772.72;;;9.88;80.28
72921;BME280;61064;51.654;5.476;2022-09-21T07:01:10;102774.22;;;10.04;80.40
72921;BME280;61064;51.654;5.476;2022-09-21T07:03:38;102764.25;;;10.19;80.35
72921;BME280;61064;51.654;5.476;2022-09-21T07:06:04;102774.88;;;10.41;80.36
72921;BME280;61064;51.654;5.476;2022-09-21T07:08:30;102761.06;;;10.52;80.24
72921;BME280;61064;51.654;5.476;2022-09-21T07:11:00;102774.47;;;10.78;80.28
72921;BME280;61064;51.654;5.476;2022-09-21T07:13:27;102746.16;;;10.80;80.02
72921;BME280;61064;51.654;5.476;2022-09-21T07:15:53;102736.78;;;10.92;79.93
72921;BME280;61064;51.654;5.476;2022-09-21T07:18:18;102760.19;;;11.27;79.76
72921;BME280;61064;51.654;5.476;2022-09-21T07:20:44;102757.19;;;11.43;79.68
72921;BME280;61064;51.654;5.476;2022-09-21T07:23:15;102730.59;;;11.45;79.52
72921;BME280;61064;51.654;5.476;2022-09-21T07:25:45;102752.19;;;11.79;79.38
72921;BME280;61064;51.654;5.476;2022-09-21T07:28:11;102765.50;;;12.06;79.08
72921;BME280;61064;51.654;5.476;2022-09-21T07:30:38;102732.44;;;12.01;78.91
72921;BME280;61064;51.654;5.476;2022-09-21T07:33:04;102769.06;;;12.35;78.66
72921;BME280;61064;51.654;5.476;2022-09-21T07:35:30;102763.22;;;12.48;78.36
72921;BME280;61064;51.654;5.476;2022-09-21T07:37:57;102747.41;;;12.56;77.97
72921;BME280;61064;51.654;5.476;2022-09-21T07:40:22;102715.28;;;12.53;77.85
72921;BME280;61064;51.654;5.476;2022-09-21T07:42:48;102758.19;;;12.90;77.74
72921;BME280;61064;51.654;5.476;2022-09-21T07:45:13;102760.34;;;13.05;77.92
72921;BME280;61064;51.654;5.476;2022-09-21T07:47:39;102760.97;;;13.26;77.55
72921;BME280;61064;51.654;5.476;2022-09-21T07:50:04;102751.59;;;13.43;76.95
72921;BME280;61064;51.654;5.476;2022-09-21T07:52:30;102747.53;;;13.59;76.63
72921;BME280;61064;51.654;5.476;2022-09-21T07:54:55;102742.47;;;13.69;76.32
72921;BME280;61064;51.654;5.476;2022-09-21T07:57:20;102744.72;;;13.90;76.18
72921;BME280;61064;51.654;5.476;2022-09-21T08:00:06;102743.28;;;14.06;75.75
72921;BME280;61064;51.654;5.476;2022-09-21T08:02:32;102737.31;;;14.18;75.11
72921;BME280;61064;51.654;5.476;2022-09-21T08:04:57;102751.91;;;14.33;74.89
72921;BME280;61064;51.654;5.476;2022-09-21T08:07:22;102747.72;;;14.43;74.67
72921;BME280;61064;51.654;5.476;2022-09-21T08:09:47;102749.84;;;14.61;74.37
72921;BME280;61064;51.654;5.476;2022-09-21T08:12:15;102746.50;;;14.72;74.19
72921;BME280;61064;51.654;5.476;2022-09-21T08:14:43;102723.34;;;14.74;73.48
72921;BME280;61064;51.654;5.476;2022-09-21T08:17:08;102736.13;;;14.87;73.26
72921;BME280;61064;51.654;5.476;2022-09-21T08:19:33;102747.16;;;15.04;72.67
72921;BME280;61064;51.654;5.476;2022-09-21T08:22:00;102742.78;;;15.11;72.28
72921;BME280;61064;51.654;5.476;2022-09-21T08:24:26;102738.31;;;15.10;72.06
72921;BME280;61064;51.654;5.476;2022-09-21T08:26:51;102748.41;;;15.24;71.84
72921;BME280;61064;51.654;5.476;2022-09-21T08:29:17;102736.72;;;15.21;71.47
72921;BME280;61064;51.654;5.476;2022-09-21T08:31:42;102717.00;;;15.19;71.49
72921;BME280;61064;51.654;5.476;2022-09-21T08:34:10;102735.31;;;15.44;70.89
72921;BME280;61064;51.654;5.476;2022-09-21T08:36:36;102751.66;;;15.55;70.55
72921;BME280;61064;51.654;5.476;2022-09-21T08:39:05;102751.81;;;15.65;70.12
72921;BME280;61064;51.654;5.476;2022-09-21T08:41:56;102749.25;;;15.73;69.85
72921;BME280;61064;51.654;5.476;2022-09-21T08:44:28;102713.28;;;15.62;69.68
72921;BME280;61064;51.654;5.476;2022-09-21T08:49:40;102758.75;;;16.11;69.05
72921;BME280;61064;51.654;5.476;2022-09-21T08:52:14;102760.75;;;16.25;68.39
72921;BME280;61064;51.654;5.476;2022-09-21T08:57:14;102764.59;;;16.45;67.73
72921;BME280;61064;51.654;5.476;2022-09-21T08:59:43;102755.69;;;16.47;67.44
72921;BME280;61064;51.654;5.476;2022-09-21T09:05:16;102756.06;;;16.76;67.26
72921;BME280;61064;51.654;5.476;2022-09-21T09:08:17;102749.94;;;16.88;67.13
72921;BME280;61064;51.654;5.476;2022-09-21T09:16:07;102761.16;;;17.35;66.29
72921;BME280;61064;51.654;5.476;2022-09-21T09:21:38;102762.34;;;17.67;65.31
72921;BME280;61064;51.654;5.476;2022-09-21T09:24:40;102765.16;;;17.84;65.26
72921;BME280;61064;51.654;5.476;2022-09-21T09:27:19;102751.78;;;17.96;64.91
72921;BME280;61064;51.654;5.476;2022-09-21T09:35:34;102770.03;;;18.44;62.95
72921;BME280;61064;51.654;5.476;2022-09-21T09:38:35;102765.53;;;18.48;62.55
72921;BME280;61064;51.654;5.476;2022-09-21T09:44:05;102755.78;;;18.69;61.97
72921;BME280;61064;51.654;5.476;2022-09-21T09:49:16;102766.66;;;19.00;60.31
72921;BME280;61064;51.654;5.476;2022-09-21T09:51:44;102758.53;;;18.89;59.79
72921;BME280;61064;51.654;5.476;2022-09-21T09:54:14;102755.78;;;18.74;59.47
72921;BME280;61064;51.654;5.476;2022-09-21T09:56:40;102762.06;;;18.73;59.79
72921;BME280;61064;51.654;5.476;2022-09-21T09:59:12;102754.91;;;18.75;59.65
72921;BME280;61064;51.654;5.476;2022-09-21T10:02:01;102719.84;;;18.72;59.68
72921;BME280;61064;51.654;5.476;2022-09-21T10:04:28;102750.47;;;19.03;58.67
72921;BME280;61064;51.654;5.476;2022-09-21T10:06:54;102744.19;;;19.04;58.10
72921;BME280;61064;51.654;5.476;2022-09-21T10:09:46;102750.47;;;18.97;58.33
72921;BME280;61064;51.654;5.476;2022-09-21T10:12:24;102757.63;;;18.95;58.60
72921;BME280;61064;51.654;5.476;2022-09-21T10:14:53;102767.56;;;18.94;58.20
72921;BME280;61064;51.654;5.476;2022-09-21T10:17:19;102717.16;;;18.72;57.94
72921;BME280;61064;51.654;5.476;2022-09-21T10:19:45;102745.03;;;18.91;58.14
72921;BME280;61064;51.654;5.476;2022-09-21T10:22:16;102754.03;;;18.90;57.80
72921;BME280;61064;51.654;5.476;2022-09-21T10:24:48;102752.22;;;18.81;57.82
72921;BME280;61064;51.654;5.476;2022-09-21T10:27:18;102761.19;;;18.80;58.22
72921;BME280;61064;51.654;5.476;2022-09-21T10:29:47;102750.44;;;18.86;57.97
72921;BME280;61064;51.654;5.476;2022-09-21T10:34:39;102726.19;;;19.01;57.58
72921;BME280;61064;51.654;5.476;2022-09-21T10:39:51;102737.03;;;19.32;56.33
72921;BME280;61064;51.654;5.476;2022-09-21T10:42:17;102722.63;;;19.31;55.47
72921;BME280;61064;51.654;5.476;2022-09-21T10:49:47;102724.41;;;19.34;54.52
72921;BME280;61064;51.654;5.476;2022-09-21T10:52:15;102729.81;;;19.22;54.38
72921;BME280;61064;51.654;5.476;2022-09-21T10:54:43;102710.91;;;18.97;54.66
72921;BME280;61064;51.654;5.476;2022-09-21T10:57:15;102736.97;;;19.01;55.03
72921;BME280;61064;51.654;5.476;2022-09-21T10:59:42;102736.97;;;18.94;55.32
72921;BME280;61064;51.654;5.476;2022-09-21T11:05:02;102736.94;;;18.80;55.57
72921;BME280;61064;51.654;5.476;2022-09-21T11:07:40;102721.63;;;18.75;55.10
72921;BME280;61064;51.654;5.476;2022-09-21T11:13:15;102744.13;;;18.75;54.61
72921;BME280;61064;51.654;5.476;2022-09-21T11:24:01;102727.88;;;18.58;54.24
72921;BME280;61064;51.654;5.476;2022-09-21T11:26:45;102736.84;;;18.57;53.88
72921;BME280;61064;51.654;5.476;2022-09-21T11:32:13;102733.19;;;18.48;53.00
72921;BME280;61064;51.654;5.476;2022-09-21T11:34:55;102731.38;;;18.41;53.63
72921;BME280;61064;51.654;5.476;2022-09-21T11:40:04;102727.88;;;18.61;52.96
72921;BME280;61064;51.654;5.476;2022-09-21T11:45:19;102711.78;;;18.90;51.89
72921;BME280;61064;51.654;5.476;2022-09-21T11:53:22;102710.84;;;18.84;52.26
72921;BME280;61064;51.654;5.476;2022-09-21T11:59:01;102707.25;;;18.71;52.26
72921;BME280;61064;51.654;5.476;2022-09-21T12:01:51;102707.22;;;18.68;52.37
72921;BME280;61064;51.654;5.476;2022-09-21T12:12:55;102692.75;;;18.39;52.71
72921;BME280;61064;51.654;5.476;2022-09-21T12:15:39;102702.66;;;18.49;52.79
72921;BME280;61064;51.654;5.476;2022-09-21T12:18:12;102682.88;;;18.44;52.98
72921;BME280;61064;51.654;5.476;2022-09-21T12:21:00;102698.16;;;18.49;52.72
72921;BME280;61064;51.654;5.476;2022-09-21T12:23:45;102690.91;;;18.39;53.06
72921;BME280;61064;51.654;5.476;2022-09-21T12:26:19;102695.44;;;18.39;53.55
72921;BME280;61064;51.654;5.476;2022-09-21T12:28:59;102688.22;;;18.33;53.41
72921;BME280;61064;51.654;5.476;2022-09-21T12:31:35;102688.19;;;18.28;53.06
72921;BME280;61064;51.654;5.476;2022-09-21T12:34:14;102681.91;;;18.26;53.29
72921;BME280;61064;51.654;5.476;2022-09-21T12:36:45;102678.28;;;18.23;53.58
72921;BME280;61064;51.654;5.476;2022-09-21T12:41:55;102669.28;;;18.18;53.37
72921;BME280;61064;51.654;5.476;2022-09-21T12:44:36;102670.16;;;18.17;53.54
72921;BME280;61064;51.654;5.476;2022-09-21T12:47:20;102673.75;;;18.11;53.67
72921;BME280;61064;51.654;5.476;2022-09-21T12:49:50;102666.56;;;18.12;53.75
72921;BME280;61064;51.654;5.476;2022-09-21T12:52:24;102667.53;;;18.21;53.22
72921;BME280;61064;51.654;5.476;2022-09-21T12:58:22;102653.28;;;18.57;52.41
72921;BME280;61064;51.654;5.476;2022-09-21T13:00:58;102653.34;;;18.83;51.87
72921;BME280;61064;51.654;5.476;2022-09-21T13:06:28;102641.66;;;19.19;51.19
72921;BME280;61064;51.654;5.476;2022-09-21T13:09:01;102645.22;;;19.39;50.51
72921;BME280;61064;51.654;5.476;2022-09-21T13:11:30;102648.84;;;19.52;50.14
72921;BME280;61064;51.654;5.476;2022-09-21T13:13:59;102642.53;;;19.59;49.55
72921;BME280;61064;51.654;5.476;2022-09-21T13:16:31;102635.34;;;19.58;49.48
72921;BME280;61064;51.654;5.476;2022-09-21T13:18:59;102638.03;;;19.64;49.46
72921;BME280;61064;51.654;5.476;2022-09-21T13:21:27;102620.91;;;19.67;49.50
72921;BME280;61064;51.654;5.476;2022-09-21T13:23:59;102642.44;;;19.85;49.54
72921;BME280;61064;51.654;5.476;2022-09-21T13:26:50;102634.31;;;19.89;49.69
72921;BME280;61064;51.654;5.476;2022-09-21T13:32:02;102629.72;;;20.22;48.94
72921;BME280;61064;51.654;5.476;2022-09-21T13:34:42;102620.63;;;20.38;48.58
72921;BME280;61064;51.654;5.476;2022-09-21T13:47:44;102623.09;;;20.78;46.98
72921;BME280;61064;51.654;5.476;2022-09-21T13:50:13;102631.19;;;20.78;46.99
72921;BME280;61064;51.654;5.476;2022-09-21T13:52:45;102606.03;;;20.66;46.88
72921;BME280;61064;51.654;5.476;2022-09-21T13:57:49;102616.84;;;20.66;46.69
72921;BME280;61064;51.654;5.476;2022-09-21T14:07:53;102608.91;;;20.28;46.49
72921;BME280;61064;51.654;5.476;2022-09-21T14:10:21;102597.25;;;20.23;46.31
72921;BME280;61064;51.654;5.476;2022-09-21T14:12:48;102604.44;;;20.32;46.49
72921;BME280;61064;51.654;5.476;2022-09-21T14:18:39;102598.97;;;20.41;46.26
72921;BME280;61064;51.654;5.476;2022-09-21T14:21:12;102592.72;;;20.33;46.30
72921;BME280;61064;51.654;5.476;2022-09-21T14:24:17;102599.97;;;20.22;46.19
72921;BME280;61064;51.654;5.476;2022-09-21T14:27:05;102593.78;;;20.00;45.97
72921;BME280;61064;51.654;5.476;2022-09-21T14:30:01;102591.16;;;19.82;46.32
72921;BME280;61064;51.654;5.476;2022-09-21T14:32:32;102590.28;;;19.75;46.30
72921;BME280;61064;51.654;5.476;2022-09-21T14:35:05;102581.34;;;19.61;46.24
72921;BME280;61064;51.654;5.476;2022-09-21T14:37:39;102587.63;;;19.57;46.23
72921;BME280;61064;51.654;5.476;2022-09-21T14:40:17;102593.03;;;19.60;45.99
72921;BME280;61064;51.654;5.476;2022-09-21T14:42:44;102583.09;;;19.70;45.99
72921;BME280;61064;51.654;5.476;2022-09-21T14:45:14;102578.59;;;19.72;45.34
72921;BME280;61064;51.654;5.476;2022-09-21T14:51:04;102583.00;;;19.92;45.99
72921;BME280;61064;51.654;5.476;2022-09-21T14:59:19;102572.97;;;20.16;46.39
72921;BME280;61064;51.654;5.476;2022-09-21T15:01:58;102566.59;;;20.24;46.37
72921;BME280;61064;51.654;5.476;2022-09-21T15:04:36;102554.03;;;20.20;45.80
72921;BME280;61064;51.654;5.476;2022-09-21T15:10:36;102563.13;;;20.03;46.33
72921;BME280;61064;51.654;5.476;2022-09-21T15:22:14;102552.50;;;19.62;46.33
72921;BME280;61064;51.654;5.476;2022-09-21T15:24:51;102549.88;;;19.49;46.19
72921;BME280;61064;51.654;5.476;2022-09-21T15:27:20;102558.84;;;19.47;46.00
72921;BME280;61064;51.654;5.476;2022-09-21T15:29:49;102547.13;;;19.40;46.21
72921;BME280;61064;51.654;5.476;2022-09-21T15:32:41;102551.66;;;19.34;46.16
72921;BME280;61064;51.654;5.476;2022-09-21T15:35:17;102548.09;;;19.21;46.53
72921;BME280;61064;51.654;5.476;2022-09-21T15:37:44;102539.09;;;19.18;46.32
72921;BME280;61064;51.654;5.476;2022-09-21T15:40:30;102539.09;;;19.13;46.59
72921;BME280;61064;51.654;5.476;2022-09-21T15:43:04;102553.50;;;19.14;46.35
72921;BME280;61064;51.654;5.476;2022-09-21T15:45:35;102539.13;;;18.96;46.45
72921;BME280;61064;51.654;5.476;2022-09-21T15:48:05;102543.66;;;18.94;46.45
72921;BME280;61064;51.654;5.476;2022-09-21T15:50:38;102540.03;;;18.91;46.67
72921;BME280;61064;51.654;5.476;2022-09-21T15:53:14;102537.38;;;18.82;46.76
72921;BME280;61064;51.654;5.476;2022-09-21T15:55:45;102523.00;;;18.72;46.38
72921;BME280;61064;51.654;5.476;2022-09-21T15:58:21;102537.34;;;18.63;46.15
72921;BME280;61064;51.654;5.476;2022-09-21T16:00:53;102537.38;;;18.59;46.40
72921;BME280;61064;51.654;5.476;2022-09-21T16:03:21;102518.44;;;18.45;46.75